Terminal Aerodrome Forecast
Issued by NWS

Home | Current Version | Previous Version | Text Only | Print | Product List | Glossary On
Versions: 1 2 3 4 5 6 7 8 9 10 11 12 13 14 15 16 17 18 19 20 21 22 23 24 25
000
FTAK31 PANC 210523
TAFACD
TAF
PACD 210523Z 2106/2206 32008KT P6SM SCT025
      TEMPO 2106/2110 BKN025
     FM211500 32018G28KT P6SM -SHRA OVC030
     FM211800 32024G32KT P6SM FEW040
     FM220300 33016KT P6SM BKN040=

USA.gov is the U.S. government's official web portal to all federal, state and local government web resources and services.